Terminal Aerodrome Forecast
Issued by NWS

Home | Current Version | Previous Version | Text Only | Print | Product List | Glossary On
Versions: 1 2 3 4 5 6 7 8 9 10 11 12 13 14 15 16 17 18
137
FTAK31 PAJN 300537
TAFASI
TAF
PASI 300537Z 3006/0106 12008KT P6SM VCSH SCT025 BKN040
      TEMPO 3006/3010 -SHRA BKN025 OVC040
     FM301200 11012KT P6SM -RA OVC040
     FM301500 12015G30KT 4SM RA BR OVC025 WS020/15040KT
     FM301800 12025G35KT 3SM RA BR OVC010 WS020/15050KT=

USA.gov is the U.S. government's official web portal to all federal, state and local government web resources and services.